Time;durP1;ratioP1;P1;durP2;ratioP2;P2;SDS_P1;SDS_P2;PMS_P1;PMS_P2;Temp;Humidity;BMP_temperature;BMP_pressure;BME280_temperature;BME280_humidity;BME280_pressure;Samples;Min_cycle;Max_cycle;Signal;HPM_P1;HPM_P2
2022/06/15 00:01:33;;;;;;;4.90;2.83;;;17.40;98.90;;;;;;5025514;28;20223;-79
2022/06/15 00:04:03;;;;;;;5.32;2.90;;;17.40;99.20;;;;;;5010546;28;20210;-79
2022/06/15 00:06:37;;;;;;;6.15;3.60;;;17.40;99.40;;;;;;5007526;28;20204;-79
2022/06/15 00:09:04;;;;;;;5.22;3.20;;;17.60;98.70;;;;;;5026296;28;20187;-79
2022/06/15 00:11:35;;;;;;;5.88;2.90;;;17.70;98.10;;;;;;5023410;28;20223;-79
2022/06/15 00:14:05;;;;;;;4.05;3.05;;;17.80;97.80;;;;;;5007846;28;20226;-79
2022/06/15 00:16:33;;;;;;;5.53;3.35;;;17.40;98.90;;;;;;4997296;28;20204;-79
2022/06/15 00:19:02;;;;;;;4.65;3.08;;;17.20;99.90;;;;;;5015437;28;20223;-79
2022/06/15 00:21:30;;;;;;;4.13;3.13;;;17.20;99.90;;;;;;5004107;28;20227;-79
2022/06/15 00:23:58;;;;;;;4.78;3.10;;;17.10;99.90;;;;;;5011822;28;20206;-79
2022/06/15 00:26:28;;;;;;;5.93;2.92;;;17.20;99.90;;;;;;5007038;28;20207;-79
2022/06/15 00:28:56;;;;;;;4.57;3.03;;;17.30;99.90;;;;;;5008041;28;20195;-79
2022/06/15 00:31:24;;;;;;;4.63;3.17;;;17.50;99.30;;;;;;5026189;28;20212;-79
2022/06/15 00:33:52;;;;;;;6.85;3.42;;;17.50;98.90;;;;;;4997851;28;20219;-77
2022/06/15 00:36:40;;;;;;;8.07;3.78;;;17.40;99.10;;;;;;5006266;28;20207;-78
2022/06/15 00:39:09;;;;;;;6.63;2.97;;;17.30;99.40;;;;;;4997953;28;20219;-78
2022/06/15 00:44:24;;;;;;;6.03;3.47;;;17.20;99.90;;;;;;5008469;28;20208;-81
2022/06/15 00:46:59;;;;;;;6.15;3.40;;;17.00;99.90;;;;;;4990613;28;20203;-81
2022/06/15 00:49:30;;;;;;;4.20;2.75;;;16.90;99.90;;;;;;4985958;28;20647;-81
2022/06/15 00:52:02;;;;;;;6.00;3.28;;;16.90;99.90;;;;;;4996972;28;20243;-81
2022/06/15 00:54:30;;;;;;;4.53;2.90;;;16.80;99.90;;;;;;4980247;28;20212;-81
2022/06/15 00:56:57;;;;;;;5.65;3.10;;;16.90;99.90;;;;;;4979767;28;20209;-81
2022/06/15 00:59:30;;;;;;;4.55;3.25;;;16.80;99.90;;;;;;5011923;28;20227;-81
2022/06/15 01:02:00;;;;;;;5.18;3.13;;;17.00;99.90;;;;;;5014828;28;20228;-81
2022/06/15 01:04:35;;;;;;;5.85;3.33;;;16.90;99.90;;;;;;4998785;28;20674;-81
2022/06/15 01:07:11;;;;;;;6.35;3.33;;;17.10;99.90;;;;;;4999449;28;20204;-81
2022/06/15 01:09:47;;;;;;;5.15;3.45;;;17.30;99.90;;;;;;4999908;28;20260;-81
2022/06/15 01:12:24;;;;;;;5.80;3.72;;;16.90;99.80;;;;;;4999186;28;20220;-82
2022/06/15 01:15:22;;;;;;;6.07;2.95;;;16.80;99.90;;;;;;5004126;28;20204;-82
2022/06/15 01:18:08;;;;;;;5.38;3.50;;;17.20;99.90;;;;;;5013624;28;20208;-81
2022/06/15 01:20:54;;;;;;;7.40;4.03;;;17.40;99.70;;;;;;4998026;28;20200;-82
2022/06/15 01:23:59;;;;;;;6.57;4.00;;;17.20;99.90;;;;;;4998207;28;20231;-81
2022/06/15 01:27:01;;;;;;;8.45;3.63;;;16.90;99.90;;;;;;4958386;28;20227;-81
2022/06/15 01:30:02;;;;;;;9.60;4.50;;;16.90;99.90;;;;;;4997855;28;20200;-82
2022/06/15 01:32:41;;;;;;;7.05;4.13;;;17.00;99.90;;;;;;4988501;28;20227;-81
2022/06/15 01:35:14;;;;;;;5.90;4.35;;;16.90;99.90;;;;;;4998725;28;20196;-81
2022/06/15 01:37:48;;;;;;;6.10;3.83;;;16.60;99.90;;;;;;4993424;28;20217;-81
2022/06/15 01:40:23;;;;;;;6.18;4.30;;;16.20;99.90;;;;;;4995142;28;20199;-81
2022/06/15 01:42:54;;;;;;;6.32;3.75;;;16.40;99.90;;;;;;4998271;28;20696;-81
2022/06/15 01:45:28;;;;;;;6.80;4.55;;;16.50;99.90;;;;;;4998312;28;20210;-81
2022/06/15 01:48:03;;;;;;;17.50;5.15;;;16.30;99.90;;;;;;4980685;28;20197;-82
2022/06/15 01:50:36;;;;;;;6.93;4.47;;;16.30;99.90;;;;;;4995885;28;20212;-82
2022/06/15 01:53:14;;;;;;;7.50;4.63;;;16.20;99.90;;;;;;4997490;28;20220;-81
2022/06/15 01:55:47;;;;;;;7.88;4.20;;;15.90;99.90;;;;;;4990018;28;20197;-81
2022/06/15 01:58:17;;;;;;;9.98;4.30;;;15.80;99.90;;;;;;4978287;28;20228;-81
2022/06/15 02:00:52;;;;;;;6.32;3.80;;;16.20;99.90;;;;;;4978088;28;20224;-81
2022/06/15 02:03:26;;;;;;;8.55;4.75;;;16.30;99.90;;;;;;4977827;28;20231;-81
2022/06/15 02:06:00;;;;;;;8.23;4.75;;;16.00;99.90;;;;;;4988122;28;20200;-81
2022/06/15 02:08:35;;;;;;;5.45;4.50;;;15.80;99.90;;;;;;4977794;28;20564;-81
2022/06/15 02:11:08;;;;;;;5.88;4.30;;;15.10;99.90;;;;;;4979314;28;20177;-81
2022/06/15 02:13:42;;;;;;;5.10;4.00;;;15.10;99.90;;;;;;4991874;28;20213;-81
2022/06/15 02:16:18;;;;;;;8.23;5.07;;;15.30;99.90;;;;;;5012847;28;20195;-81
2022/06/15 02:18:49;;;;;;;9.35;4.57;;;15.60;99.90;;;;;;4997575;28;20212;-81
2022/06/15 02:21:19;;;;;;;8.10;4.82;;;15.70;99.90;;;;;;4996820;28;20192;-81
2022/06/15 02:23:50;;;;;;;6.18;3.97;;;15.40;99.90;;;;;;4993460;28;20229;-81
2022/06/15 02:26:19;;;;;;;6.40;4.28;;;15.80;99.90;;;;;;4977664;28;20212;-81
2022/06/15 02:28:51;;;;;;;6.07;4.47;;;15.50;99.90;;;;;;4976830;28;20201;-81
2022/06/15 02:31:19;;;;;;;8.00;4.20;;;15.70;99.90;;;;;;4978511;28;20217;-81
2022/06/15 02:33:53;;;;;;;7.60;4.65;;;15.20;99.90;;;;;;4993622;28;20244;-81
2022/06/15 02:36:22;;;;;;;6.18;4.25;;;15.30;99.90;;;;;;4977616;28;20193;-81
2022/06/15 02:38:51;;;;;;;6.47;4.50;;;15.20;99.90;;;;;;4989911;28;20217;-81
2022/06/15 02:41:21;;;;;;;6.82;4.70;;;15.50;99.90;;;;;;4996389;28;20204;-81
2022/06/15 02:43:54;;;;;;;5.55;4.38;;;15.40;99.90;;;;;;4996059;28;20235;-81
2022/06/15 02:46:24;;;;;;;7.22;4.30;;;15.30;99.90;;;;;;4998219;28;20180;-81
2022/06/15 02:48:56;;;;;;;6.63;4.85;;;15.40;99.90;;;;;;4995917;28;20197;-81
2022/06/15 02:51:30;;;;;;;6.38;4.00;;;15.40;99.90;;;;;;4996871;28;20200;-81
2022/06/15 02:54:08;;;;;;;6.75;4.50;;;15.20;99.90;;;;;;4996302;28;20192;-81
2022/06/15 02:56:38;;;;;;;6.25;4.43;;;15.30;99.90;;;;;;4996184;28;20195;-81
2022/06/15 02:59:06;;;;;;;5.25;4.43;;;15.30;99.90;;;;;;4996285;28;20220;-81
2022/06/15 03:01:39;;;;;;;6.10;4.65;;;15.40;99.90;;;;;;4996200;28;20200;-81
2022/06/15 03:04:10;;;;;;;6.45;4.50;;;15.20;99.90;;;;;;4996351;28;20223;-81
2022/06/15 03:06:38;;;;;;;7.30;5.13;;;15.50;99.90;;;;;;5012968;28;20657;-81
2022/06/15 03:09:13;;;;;;;5.57;3.90;;;15.10;99.90;;;;;;4995806;28;20192;-81
2022/06/15 03:11:52;;;;;;;5.53;4.47;;;15.00;99.90;;;;;;4995940;28;20211;-81
2022/06/15 03:14:39;;;;;;;6.10;4.45;;;14.90;99.90;;;;;;4995803;28;20211;-81
2022/06/15 03:17:12;;;;;;;7.15;4.40;;;14.90;99.90;;;;;;4996232;28;20200;-81
2022/06/15 03:19:53;;;;;;;8.05;4.72;;;14.90;99.90;;;;;;4995837;28;20223;-81
2022/06/15 03:22:21;;;;;;;7.05;4.75;;;14.90;99.90;;;;;;4996041;28;20217;-81
2022/06/15 03:24:55;;;;;;;8.13;4.40;;;15.10;99.90;;;;;;4998735;28;20661;-81
2022/06/15 03:27:23;;;;;;;8.52;5.15;;;15.00;99.90;;;;;;5020040;28;20203;-82
2022/06/15 03:29:53;;;;;;;7.53;5.00;;;14.90;99.90;;;;;;5021984;28;20195;-81
2022/06/15 03:32:24;;;;;;;5.03;4.30;;;14.50;99.90;;;;;;5014513;28;20223;-82
2022/06/15 03:35:06;;;;;;;6.80;4.25;;;14.50;99.90;;;;;;5019199;28;20200;-82
2022/06/15 03:37:35;;;;;;;9.43;5.07;;;14.60;99.90;;;;;;5002955;28;20219;-82
2022/06/15 03:40:26;;;;;;;6.88;4.60;;;14.50;99.90;;;;;;4999468;28;20220;-83
2022/06/15 03:42:55;;;;;;;7.82;4.38;;;14.70;99.90;;;;;;4999508;28;20698;-83
2022/06/15 03:45:25;;;;;;;6.57;4.43;;;14.70;99.90;;;;;;4999422;28;20216;-81
2022/06/15 03:47:55;;;;;;;7.28;4.50;;;14.70;99.90;;;;;;4994928;28;20201;-82
2022/06/15 03:50:26;;;;;;;6.15;4.90;;;14.70;99.90;;;;;;5003099;28;20203;-82
2022/06/15 03:52:57;;;;;;;7.38;4.85;;;14.50;99.90;;;;;;5002565;28;20224;-82
2022/06/15 03:55:25;;;;;;;10.43;4.95;;;14.50;99.90;;;;;;5002365;28;20203;-82
2022/06/15 03:57:55;;;;;;;5.35;4.65;;;14.80;99.90;;;;;;5002877;28;20220;-81
2022/06/15 04:00:25;;;;;;;8.15;4.78;;;14.90;99.90;;;;;;5002170;28;20246;-82
2022/06/15 04:02:53;;;;;;;6.60;5.13;;;14.90;99.90;;;;;;5003799;28;20220;-83
2022/06/15 04:05:39;;;;;;;6.45;4.85;;;15.10;99.90;;;;;;5003154;28;20200;-82
2022/06/15 04:10:58;;;;;;;6.57;5.05;;;15.00;99.90;;;;;;5002818;28;20200;-83
2022/06/15 04:13:27;;;;;;;8.15;5.03;;;15.20;99.90;;;;;;5002909;28;20235;-82
2022/06/15 04:15:54;;;;;;;6.60;5.30;;;14.90;99.90;;;;;;5002165;28;20208;-82
2022/06/15 04:18:24;;;;;;;4.80;4.22;;;14.90;99.90;;;;;;5002393;28;20200;-82
2022/06/15 04:20:54;;;;;;;7.38;5.18;;;14.90;99.90;;;;;;5001309;28;20224;-82
2022/06/15 04:23:24;;;;;;;9.55;6.15;;;14.70;99.90;;;;;;5002742;28;20303;-82
2022/06/15 04:25:57;;;;;;;7.13;4.57;;;14.80;99.90;;;;;;4998536;28;20197;-82
2022/06/15 04:28:29;;;;;;;7.47;4.93;;;15.10;99.90;;;;;;5000746;28;20547;-83
2022/06/15 04:31:00;;;;;;;6.93;5.05;;;15.20;99.90;;;;;;5002054;28;20204;-82
2022/06/15 04:33:33;;;;;;;7.90;5.53;;;15.30;99.90;;;;;;5002560;28;20216;-82
2022/06/15 04:36:03;;;;;;;8.43;5.13;;;15.30;99.90;;;;;;5002579;28;20212;-82
2022/06/15 04:38:31;;;;;;;7.47;5.13;;;15.30;99.90;;;;;;4999562;28;20212;-83
2022/06/15 04:41:04;;;;;;;6.18;5.03;;;15.30;99.90;;;;;;4986712;28;20236;-82
2022/06/15 04:43:32;;;;;;;7.18;5.00;;;15.50;99.90;;;;;;4999258;28;20220;-82
2022/06/15 04:46:00;;;;;;;8.48;5.57;;;15.60;99.90;;;;;;4999404;28;20197;-82
2022/06/15 04:48:28;;;;;;;9.48;5.50;;;15.50;99.90;;;;;;4999457;28;20223;-82
2022/06/15 04:50:57;;;;;;;8.85;5.68;;;15.30;99.90;;;;;;4999375;28;20188;-82
2022/06/15 04:53:31;;;;;;;6.60;5.70;;;15.40;99.90;;;;;;4999634;28;20690;-83
2022/06/15 04:55:59;;;;;;;9.48;6.13;;;15.40;99.90;;;;;;4999746;28;20213;-83
2022/06/15 04:58:27;;;;;;;7.03;5.50;;;15.60;99.90;;;;;;4999337;28;20204;-82
2022/06/15 05:00:59;;;;;;;8.55;5.82;;;15.60;99.90;;;;;;5014768;28;20227;-82
2022/06/15 05:03:28;;;;;;;7.00;5.57;;;15.50;99.90;;;;;;4999705;28;20227;-82
2022/06/15 05:05:57;;;;;;;6.72;5.93;;;15.60;99.90;;;;;;4999869;28;20204;-83
2022/06/15 05:08:26;;;;;;;6.97;5.45;;;15.60;99.90;;;;;;4999008;28;20200;-82
2022/06/15 05:10:58;;;;;;;9.30;5.50;;;15.80;99.90;;;;;;4998840;28;20203;-83
2022/06/15 05:13:28;;;;;;;7.03;5.95;;;16.00;99.90;;;;;;4999019;28;20228;-82
2022/06/15 05:15:59;;;;;;;10.27;5.95;;;16.10;99.90;;;;;;5000324;28;20203;-82
2022/06/15 05:18:26;;;;;;;7.85;6.43;;;16.10;99.90;;;;;;4999771;28;20204;-83
2022/06/15 05:20:57;;;;;;;6.78;5.57;;;16.10;99.90;;;;;;4997549;28;20217;-82
2022/06/15 05:23:27;;;;;;;10.10;6.05;;;16.00;99.90;;;;;;4998302;28;20216;-81
2022/06/15 05:26:18;;;;;;;12.63;6.40;;;16.20;99.90;;;;;;4994787;28;20626;-83
2022/06/15 05:28:46;;;;;;;8.45;5.95;;;16.20;99.90;;;;;;4990500;28;20197;-78
2022/06/15 05:31:20;;;;;;;6.80;5.88;;;16.30;99.90;;;;;;4990730;28;20197;-80
2022/06/15 05:33:54;;;;;;;6.45;5.85;;;16.40;99.90;;;;;;4980578;28;20221;-82
2022/06/15 05:36:24;;;;;;;7.53;6.68;;;16.40;99.90;;;;;;4978551;28;20197;-83
2022/06/15 05:38:52;;;;;;;10.60;6.22;;;16.60;99.90;;;;;;4979025;28;20200;-82
2022/06/15 05:41:21;;;;;;;7.57;5.82;;;16.70;99.90;;;;;;4997836;28;20216;-82
2022/06/15 05:43:50;;;;;;;8.15;6.65;;;16.60;99.90;;;;;;4998363;28;20216;-82
2022/06/15 05:46:26;;;;;;;11.10;7.32;;;16.50;99.90;;;;;;4997975;28;20650;-83
2022/06/15 05:48:54;;;;;;;10.95;7.07;;;16.70;99.90;;;;;;4998031;28;20208;-83
2022/06/15 05:51:24;;;;;;;9.68;6.28;;;16.80;99.90;;;;;;4996564;28;20207;-82
2022/06/15 05:53:52;;;;;;;7.72;6.20;;;16.80;99.90;;;;;;4994648;28;20706;-82
2022/06/15 05:56:21;;;;;;;7.05;6.28;;;16.90;99.90;;;;;;4991374;28;20201;-82
2022/06/15 05:58:49;;;;;;;8.05;6.45;;;17.00;99.90;;;;;;4978371;28;20205;-82
2022/06/15 06:01:23;;;;;;;9.45;6.78;;;17.10;99.90;;;;;;4978974;28;20216;-81
2022/06/15 06:03:51;;;;;;;9.00;6.45;;;17.10;99.90;;;;;;4994938;28;20227;-82
2022/06/15 06:06:18;;;;;;;8.40;6.03;;;17.20;99.90;;;;;;4997440;28;20200;-83
2022/06/15 06:08:46;;;;;;;8.60;6.47;;;17.50;99.90;;;;;;4997549;28;20196;-83
2022/06/15 06:11:14;;;;;;;8.82;5.70;;;17.50;99.90;;;;;;4997617;28;20193;-82
2022/06/15 06:13:43;;;;;;;7.75;6.35;;;17.60;99.90;;;;;;4997334;28;20229;-82
2022/06/15 06:16:10;;;;;;;6.93;6.13;;;17.70;99.90;;;;;;4997854;28;20527;-83
2022/06/15 06:18:38;;;;;;;7.78;5.88;;;17.40;99.90;;;;;;4997276;28;20196;-82
2022/06/15 06:21:06;;;;;;;9.68;7.30;;;17.20;99.90;;;;;;4997703;28;20220;-83
2022/06/15 06:23:34;;;;;;;8.77;6.93;;;17.50;99.90;;;;;;4996482;28;20251;-81
2022/06/15 06:26:02;;;;;;;10.23;6.55;;;17.80;99.90;;;;;;4990300;28;20200;-82
2022/06/15 06:28:32;;;;;;;10.40;6.18;;;17.90;99.90;;;;;;4996484;28;20607;-82
2022/06/15 06:31:03;;;;;;;9.70;6.82;;;17.90;99.90;;;;;;4997824;28;20196;-82
2022/06/15 06:33:32;;;;;;;8.82;6.45;;;18.00;99.90;;;;;;4996522;28;20224;-83
2022/06/15 06:36:04;;;;;;;8.88;6.25;;;18.10;99.90;;;;;;4997951;28;20201;-82
2022/06/15 06:38:32;;;;;;;12.23;7.07;;;18.10;99.90;;;;;;4996838;28;20200;-82
2022/06/15 06:41:00;;;;;;;8.60;6.70;;;18.10;99.90;;;;;;4996883;28;20732;-82
2022/06/15 06:43:28;;;;;;;10.00;6.68;;;18.20;99.90;;;;;;5057050;23;20243;-78
2022/06/15 06:45:56;;;;;;;10.50;5.78;;;18.20;99.90;;;;;;5039402;28;20198;-80
2022/06/15 06:48:25;;;;;;;7.30;5.88;;;18.30;99.90;;;;;;5026704;28;20199;-80
2022/06/15 06:50:53;;;;;;;7.40;6.15;;;18.40;99.90;;;;;;5026807;28;20191;-80
2022/06/15 06:53:21;;;;;;;9.55;7.00;;;18.60;99.90;;;;;;5043122;28;20225;-80
2022/06/15 06:55:48;;;;;;;8.77;6.25;;;18.60;99.90;;;;;;5029272;28;20203;-81
2022/06/15 06:58:16;;;;;;;7.70;5.40;;;18.50;99.90;;;;;;5013039;28;20346;-80
2022/06/15 07:00:43;;;;;;;8.27;6.18;;;18.30;99.90;;;;;;5023504;28;20215;-81
2022/06/15 07:03:11;;;;;;;8.40;5.57;;;18.60;99.90;;;;;;5022016;28;20227;-80
2022/06/15 07:05:40;;;;;;;7.47;6.68;;;18.60;99.90;;;;;;5032827;28;20229;-80
2022/06/15 07:08:12;;;;;;;8.82;5.88;;;18.70;99.90;;;;;;5025213;28;20213;-80
2022/06/15 07:10:39;;;;;;;7.72;5.57;;;18.70;99.90;;;;;;5027803;28;20192;-80
2022/06/15 07:13:07;;;;;;;8.05;6.25;;;18.90;99.90;;;;;;5008702;28;20230;-80
2022/06/15 07:15:36;;;;;;;7.68;6.03;;;18.70;99.90;;;;;;5021421;28;20199;-80
2022/06/15 07:18:04;;;;;;;10.10;6.68;;;18.80;99.90;;;;;;5022578;28;20199;-80
2022/06/15 07:20:32;;;;;;;7.68;5.95;;;18.80;99.90;;;;;;5013542;28;20215;-81
2022/06/15 07:23:01;;;;;;;7.88;6.43;;;19.00;99.90;;;;;;5035987;28;20218;-80
2022/06/15 07:25:30;;;;;;;9.55;6.85;;;19.00;99.90;;;;;;5041309;28;20195;-81
2022/06/15 07:27:58;;;;;;;8.35;5.97;;;19.10;99.90;;;;;;5022697;28;20204;-81
2022/06/15 07:30:28;;;;;;;8.60;6.03;;;19.10;99.90;;;;;;5006853;28;20203;-81
2022/06/15 07:32:55;;;;;;;8.25;6.40;;;19.20;99.90;;;;;;5005261;28;20219;-81
2022/06/15 07:35:26;;;;;;;10.35;6.47;;;19.20;99.90;;;;;;5007928;28;20218;-80
2022/06/15 07:37:54;;;;;;;7.50;5.55;;;19.40;99.40;;;;;;5024622;28;20208;-80
2022/06/15 07:40:24;;;;;;;6.85;5.40;;;19.30;99.40;;;;;;4986559;28;20204;-80
2022/06/15 07:42:54;;;;;;;7.63;5.47;;;19.40;98.90;;;;;;4985335;28;20227;-80
2022/06/15 07:45:24;;;;;;;9.95;6.05;;;19.60;98.60;;;;;;4986251;28;20196;-80
2022/06/15 07:50:37;;;;;;;6.97;5.30;;;19.60;98.30;;;;;;4986067;28;20204;-81
2022/06/15 07:53:08;;;;;;;8.02;5.90;;;19.70;97.70;;;;;;5014965;28;20228;-80
2022/06/15 07:55:39;;;;;;;9.00;5.47;;;19.70;97.40;;;;;;5041858;28;20193;-80
2022/06/15 07:58:07;;;;;;;9.27;5.47;;;19.60;98.10;;;;;;5025148;28;20210;-81
2022/06/15 08:00:39;;;;;;;7.70;5.53;;;19.70;98.50;;;;;;5006590;28;20202;-81
2022/06/15 08:03:09;;;;;;;9.00;5.03;;;19.80;97.80;;;;;;5004627;28;20223;-80
2022/06/15 08:05:41;;;;;;;9.10;5.22;;;19.90;97.80;;;;;;5024698;28;20211;-81
2022/06/15 08:08:11;;;;;;;9.23;6.10;;;20.00;97.90;;;;;;5025210;28;20668;-80
2022/06/15 08:10:41;;;;;;;10.73;6.57;;;20.10;96.80;;;;;;5031553;28;20202;-81
2022/06/15 08:13:09;;;;;;;8.38;5.85;;;20.20;96.50;;;;;;5021367;28;20697;-81
2022/06/15 08:15:37;;;;;;;8.00;6.68;;;20.30;96.80;;;;;;5025790;28;20214;-80
2022/06/15 08:18:09;;;;;;;13.75;6.65;;;20.40;96.50;;;;;;5025587;28;20196;-81
2022/06/15 08:20:42;;;;;;;8.95;6.55;;;20.40;96.60;;;;;;5009697;28;20211;-81
2022/06/15 08:23:13;;;;;;;9.10;6.22;;;20.40;96.10;;;;;;5026463;28;20218;-81
2022/06/15 08:25:46;;;;;;;10.23;6.80;;;20.40;95.60;;;;;;5009692;28;20204;-80
2022/06/15 08:28:18;;;;;;;7.63;5.95;;;20.40;95.40;;;;;;5009031;28;20203;-81
2022/06/15 08:30:46;;;;;;;10.15;6.72;;;20.30;95.20;;;;;;5017705;28;20210;-80
2022/06/15 08:33:17;;;;;;;7.82;5.88;;;20.40;95.80;;;;;;5041315;28;20238;-80
2022/06/15 08:35:45;;;;;;;11.27;7.05;;;20.50;95.80;;;;;;5046773;28;20179;-80
2022/06/15 08:38:16;;;;;;;9.93;6.35;;;20.60;95.20;;;;;;5044523;28;20195;-81
2022/06/15 08:40:50;;;;;;;9.05;6.32;;;20.50;95.30;;;;;;5027625;28;20199;-80
2022/06/15 08:43:29;;;;;;;6.95;6.28;;;20.60;95.40;;;;;;5045701;28;20241;-80
2022/06/15 08:46:03;;;;;;;9.45;5.80;;;20.70;95.80;;;;;;5016055;28;20204;-81
2022/06/15 08:48:45;;;;;;;7.82;6.07;;;20.70;95.60;;;;;;5026472;28;20183;-80
2022/06/15 08:51:19;;;;;;;10.20;6.65;;;20.80;95.90;;;;;;5010825;28;20192;-80
2022/06/15 08:53:53;;;;;;;11.90;6.85;;;20.90;95.60;;;;;;5008322;28;20224;-80
2022/06/15 08:56:27;;;;;;;6.28;5.65;;;20.90;95.40;;;;;;5007884;28;20206;-80
2022/06/15 08:58:59;;;;;;;9.20;5.25;;;20.90;95.50;;;;;;5025437;28;20192;-81
2022/06/15 09:01:33;;;;;;;6.45;5.80;;;21.00;94.90;;;;;;5013736;28;20242;-80
2022/06/15 09:04:12;;;;;;;9.40;6.32;;;21.00;94.60;;;;;;5007249;28;20567;-81
2022/06/15 09:06:49;;;;;;;6.25;5.10;;;21.00;94.20;;;;;;5023351;28;20204;-81
2022/06/15 09:09:39;;;;;;;5.85;5.38;;;21.00;95.00;;;;;;5005135;28;20669;-81
2022/06/15 09:15:18;;;;;;;7.13;4.68;;;21.30;94.80;;;;;;5004050;28;20208;-81
2022/06/15 09:17:47;;;;;;;7.25;5.60;;;21.40;95.50;;;;;;4988395;28;20214;-81
2022/06/15 09:20:21;;;;;;;6.07;5.13;;;21.50;95.20;;;;;;5008099;28;20203;-81
2022/06/15 09:22:55;;;;;;;8.27;5.35;;;21.40;94.80;;;;;;5004152;28;20243;-80
2022/06/15 09:25:28;;;;;;;8.50;4.40;;;21.50;95.10;;;;;;5004414;28;20206;-81
2022/06/15 09:28:02;;;;;;;5.40;4.50;;;21.50;94.20;;;;;;5003861;28;20212;-81
2022/06/15 09:30:34;;;;;;;5.53;4.15;;;21.40;94.00;;;;;;5004421;28;20204;-81
2022/06/15 09:33:08;;;;;;;5.25;4.05;;;21.40;94.00;;;;;;5017347;28;20588;-80
2022/06/15 09:35:38;;;;;;;5.22;3.33;;;21.50;93.90;;;;;;5015627;28;20199;-81
2022/06/15 09:38:12;;;;;;;4.93;3.88;;;21.70;94.80;;;;;;5021876;28;20191;-80
2022/06/15 09:40:47;;;;;;;5.85;4.00;;;21.60;92.50;;;;;;5045055;28;20199;-80
2022/06/15 09:43:27;;;;;;;5.28;4.25;;;21.70;93.00;;;;;;5042847;28;20222;-81
2022/06/15 09:46:02;;;;;;;5.82;4.28;;;21.80;93.00;;;;;;5042928;28;20210;-81
2022/06/15 09:48:42;;;;;;;7.28;4.50;;;21.70;92.80;;;;;;5003855;28;20210;-80
2022/06/15 09:51:20;;;;;;;4.32;3.60;;;21.80;92.30;;;;;;5003619;28;20204;-80
2022/06/15 09:53:57;;;;;;;10.20;4.32;;;21.90;92.20;;;;;;5003108;28;20223;-81
2022/06/15 09:56:25;;;;;;;7.32;3.95;;;22.00;92.00;;;;;;5003784;28;20207;-81
2022/06/15 09:58:58;;;;;;;8.40;4.03;;;22.00;92.00;;;;;;5032277;28;20202;-82
2022/06/15 10:01:30;;;;;;;6.72;3.92;;;22.10;92.20;;;;;;5006111;28;20210;-81
2022/06/15 10:04:01;;;;;;;4.75;3.42;;;22.30;92.10;;;;;;5013095;28;20212;-80
2022/06/15 10:06:37;;;;;;;7.38;3.90;;;22.40;92.20;;;;;;5024773;28;20191;-80
2022/06/15 10:09:10;;;;;;;7.38;3.90;;;22.30;92.20;;;;;;5026225;28;20202;-81
2022/06/15 10:11:43;;;;;;;5.70;4.35;;;22.20;92.80;;;;;;5029436;28;20201;-80
2022/06/15 10:14:23;;;;;;;5.60;3.63;;;22.30;91.60;;;;;;5035717;28;20226;-81
2022/06/15 10:16:55;;;;;;;5.78;4.00;;;22.40;91.60;;;;;;5043093;28;20656;-80
2022/06/15 10:19:24;;;;;;;5.20;3.60;;;22.40;92.30;;;;;;5018006;28;20592;-81
2022/06/15 10:21:55;;;;;;;7.90;4.38;;;22.40;91.90;;;;;;5023267;28;20689;-80
2022/06/15 10:24:28;;;;;;;6.07;4.18;;;22.30;90.90;;;;;;5006325;28;20219;-81
2022/06/15 10:27:21;;;;;;;6.50;4.13;;;22.40;91.00;;;;;;5006384;28;20203;-82
2022/06/15 10:30:01;;;;;;;6.38;4.00;;;22.50;90.30;;;;;;5025455;28;20184;-80
2022/06/15 10:32:30;;;;;;;5.40;4.18;;;22.40;90.10;;;;;;5006184;28;20653;-81
2022/06/15 10:35:14;;;;;;;7.20;4.65;;;22.50;90.50;;;;;;5006379;28;20206;-81
2022/06/15 10:37:46;;;;;;;7.45;3.90;;;22.70;90.80;;;;;;5001945;28;20204;-80
2022/06/15 10:40:26;;;;;;;6.85;4.10;;;22.80;90.60;;;;;;4987214;28;20211;-81
2022/06/15 10:42:56;;;;;;;7.85;4.32;;;22.90;90.20;;;;;;5003654;28;20235;-81
2022/06/15 10:45:32;;;;;;;6.85;3.70;;;23.00;89.50;;;;;;5018051;28;20196;-81
2022/06/15 10:48:02;;;;;;;5.53;3.78;;;23.10;87.10;;;;;;5012030;28;20191;-81
2022/06/15 10:50:33;;;;;;;4.70;4.00;;;23.10;86.00;;;;;;5025982;28;20191;-80
2022/06/15 10:53:03;;;;;;;8.25;4.40;;;23.30;88.20;;;;;;5035754;28;20242;-81
2022/06/15 11:04:07;;;;;;;5.38;3.65;;;23.70;82.90;;;;;;5030663;28;20227;-81
2022/06/15 11:06:41;;;;;;;3.83;3.42;;;23.70;83.40;;;;;;5042531;28;20210;-80
2022/06/15 11:09:18;;;;;;;6.22;3.22;;;23.90;83.40;;;;;;5025016;28;20664;-81
2022/06/15 11:11:46;;;;;;;5.68;3.85;;;24.00;80.60;;;;;;5006231;28;20214;-80
2022/06/15 11:14:22;;;;;;;5.32;2.95;;;24.10;80.50;;;;;;5029905;28;20225;-81
2022/06/15 11:19:51;;;;;;;4.75;3.72;;;24.30;80.00;;;;;;4987164;28;20206;-81
2022/06/15 11:22:22;;;;;;;5.10;4.05;;;24.20;79.20;;;;;;4986683;28;20212;-81
2022/06/15 11:24:55;;;;;;;6.25;3.58;;;24.20;75.70;;;;;;5004139;28;20187;-81
2022/06/15 11:27:26;;;;;;;7.60;3.55;;;24.40;78.20;;;;;;5010860;28;20207;-81
2022/06/15 11:29:58;;;;;;;7.47;4.18;;;24.60;77.30;;;;;;5038141;28;20202;-81
2022/06/15 11:32:36;;;;;;;4.75;3.70;;;24.80;77.50;;;;;;5041573;28;20661;-81
2022/06/15 11:35:18;;;;;;;6.68;3.63;;;24.70;77.60;;;;;;5040908;28;20660;-81
2022/06/15 11:37:51;;;;;;;6.35;3.50;;;25.10;76.10;;;;;;5036313;28;20202;-81
2022/06/15 11:40:25;;;;;;;9.30;3.22;;;25.30;74.20;;;;;;5034035;28;20179;-81
2022/06/15 11:42:55;;;;;;;4.53;3.67;;;25.40;73.50;;;;;;5032884;28;20245;-80
2022/06/15 11:45:29;;;;;;;11.82;4.40;;;25.30;75.80;;;;;;5000986;28;20203;-81
2022/06/15 11:48:11;;;;;;;5.63;3.50;;;25.40;72.90;;;;;;5017863;28;20583;-80
2022/06/15 11:50:47;;;;;;;4.90;3.20;;;25.40;72.60;;;;;;5004974;28;20196;-81
2022/06/15 11:53:25;;;;;;;6.32;3.70;;;25.30;70.00;;;;;;5006606;28;20222;-79
2022/06/15 11:55:59;;;;;;;6.45;3.17;;;25.40;70.50;;;;;;5000271;28;20202;-80
2022/06/15 11:58:48;;;;;;;5.68;3.30;;;25.50;70.70;;;;;;5005012;28;20665;-79
2022/06/15 12:01:28;;;;;;;5.25;3.00;;;25.60;71.60;;;;;;5020164;28;20204;-79
2022/06/15 12:04:28;;;;;;;5.10;3.80;;;25.70;70.70;;;;;;5008550;28;20227;-79
2022/06/15 12:07:04;;;;;;;4.50;3.10;;;25.70;71.10;;;;;;4986784;28;20196;-80
2022/06/15 12:09:46;;;;;;;4.53;3.00;;;25.90;68.60;;;;;;4987371;28;20207;-79
2022/06/15 12:12:59;;;;;;;5.07;3.55;;;25.90;68.10;;;;;;4985962;28;20207;-80
2022/06/15 12:15:39;;;;;;;4.88;3.50;;;25.90;65.50;;;;;;4967928;28;20198;-79
2022/06/15 12:18:25;;;;;;;7.88;3.10;;;25.90;68.70;;;;;;4998327;28;20176;-79
2022/06/15 12:21:00;;;;;;;5.78;3.38;;;25.90;68.60;;;;;;5000349;28;20569;-79
2022/06/15 12:23:47;;;;;;;4.40;3.28;;;25.80;65.10;;;;;;4999482;28;20215;-79
2022/06/15 12:26:29;;;;;;;5.00;2.67;;;25.70;64.80;;;;;;5017283;28;20538;-79
2022/06/15 12:29:05;;;;;;;6.10;3.00;;;26.10;66.20;;;;;;5017433;28;20187;-79
2022/06/15 12:31:46;;;;;;;4.80;3.15;;;26.40;66.00;;;;;;4999909;28;20564;-79
2022/06/15 12:34:20;;;;;;;4.43;2.90;;;26.50;62.60;;;;;;4999731;28;20215;-79
2022/06/15 12:36:54;;;;;;;5.47;3.00;;;26.30;60.60;;;;;;4998334;28;20566;-79
2022/06/15 12:39:30;;;;;;;4.43;3.20;;;26.60;61.70;;;;;;5017306;28;20202;-79
2022/06/15 12:42:10;;;;;;;5.28;3.47;;;26.90;60.40;;;;;;5019584;28;20563;-79
2022/06/15 12:44:46;;;;;;;3.05;2.72;;;26.70;62.20;;;;;;5038549;23;22220;-79
2022/06/15 12:47:17;;;;;;;4.93;2.80;;;26.90;60.40;;;;;;4997532;28;20207;-79
2022/06/15 12:49:55;;;;;;;5.07;3.10;;;26.80;58.20;;;;;;4998883;28;20791;-80
2022/06/15 12:52:27;;;;;;;4.30;2.70;;;27.00;58.20;;;;;;5006299;28;20210;-79
2022/06/15 12:55:06;;;;;;;7.00;3.30;;;27.00;59.80;;;;;;4995472;28;20578;-79
2022/06/15 12:57:43;;;;;;;7.80;2.78;;;27.10;59.60;;;;;;4978157;28;20306;-80
2022/06/15 13:00:21;;;;;;;6.70;3.47;;;27.40;59.90;;;;;;4971362;28;20205;-79
2022/06/15 13:02:57;;;;;;;7.50;2.78;;;27.50;56.40;;;;;;4968582;28;20206;-80
2022/06/15 13:05:29;;;;;;;4.60;2.95;;;27.50;54.30;;;;;;4994162;28;20231;-80
2022/06/15 13:08:18;;;;;;;4.75;2.60;;;27.70;55.00;;;;;;4984879;28;20197;-80
2022/06/15 13:11:14;;;;;;;2.88;2.42;;;27.80;54.60;;;;;;4975422;28;20197;-79
2022/06/15 13:13:46;;;;;;;4.05;2.80;;;27.60;56.80;;;;;;4975947;28;20221;-79
2022/06/15 13:16:17;;;;;;;4.95;3.03;;;27.60;58.20;;;;;;4969493;28;20208;-79
2022/06/15 13:18:48;;;;;;;6.38;3.45;;;27.90;55.50;;;;;;4994878;28;20204;-79
2022/06/15 13:21:18;;;;;;;4.30;2.33;;;27.90;54.90;;;;;;4978701;28;20207;-79
2022/06/15 13:23:58;;;;;;;4.65;2.78;;;28.30;55.50;;;;;;4978547;28;20231;-79
2022/06/15 13:26:43;;;;;;;4.03;3.00;;;28.40;54.40;;;;;;4996295;28;20181;-79
2022/06/15 13:29:31;;;;;;;4.95;2.80;;;28.40;52.80;;;;;;4978563;28;20204;-79
2022/06/15 13:32:01;;;;;;;5.28;2.85;;;28.30;53.30;;;;;;4978647;28;20204;-79
2022/06/15 13:34:49;;;;;;;3.17;2.85;;;28.30;53.70;;;;;;4994689;28;20678;-79
2022/06/15 13:37:26;;;;;;;4.15;2.58;;;28.50;53.50;;;;;;4989189;28;20209;-79
2022/06/15 13:39:57;;;;;;;3.63;2.58;;;28.70;51.40;;;;;;4977131;28;20673;-79